N1972A KFIG-KGVQ
Flight info
| Callsign | N1972A |
|---|---|
| Flight time | 1h 8m |
| Altitude | 5000 |
| Route | SLT ELZ |
| Aircraft | C172/L-S/NC |
Departure
| Time | 2026-04-16 18:36 |
|---|---|
| Airport | Clearfield Lawrence Airport (KFIG) |
Arrival
| Time | 2026-04-16 19:44 |
|---|---|
| Airport | Genesee County Airport (KGVQ) |
| Time | Latitude | Longitude | Altitude | Speed | Heading |
|---|---|---|---|---|---|
| 2026-04-16 18:26 | 41.04737 | -78.41330 | 1520 ft | 0 kts | 107° |
| 2026-04-16 18:28 | 41.04738 | -78.41334 | 1520 ft | 2 kts | 107° |
| 2026-04-16 18:28 | 41.04743 | -78.41354 | 1520 ft | 1 kts | 107° |
| 2026-04-16 18:29 | 41.04743 | -78.41355 | 1520 ft | 0 kts | 107° |
| 2026-04-16 18:30 | 41.04748 | -78.41343 | 1520 ft | 4 kts | 11° |
| 2026-04-16 18:30 | 41.04776 | -78.41343 | 1520 ft | 3 kts | 1° |
| 2026-04-16 18:30 | 41.04797 | -78.41337 | 1520 ft | 3 kts | 18° |
| 2026-04-16 18:31 | 41.04818 | -78.41328 | 1520 ft | 3 kts | 18° |
| 2026-04-16 18:31 | 41.04839 | -78.41320 | 1520 ft | 3 kts | 18° |
| 2026-04-16 18:31 | 41.04856 | -78.41303 | 1520 ft | 3 kts | 71° |
| 2026-04-16 18:31 | 41.04851 | -78.41273 | 1520 ft | 3 kts | 109° |
| 2026-04-16 18:32 | 41.04843 | -78.41241 | 1520 ft | 4 kts | 109° |
| 2026-04-16 18:32 | 41.04831 | -78.41196 | 1520 ft | 6 kts | 109° |
| 2026-04-16 18:32 | 41.04817 | -78.41141 | 1520 ft | 7 kts | 109° |
| 2026-04-16 18:32 | 41.04801 | -78.41079 | 1520 ft | 7 kts | 109° |
| 2026-04-16 18:33 | 41.04783 | -78.41012 | 1520 ft | 8 kts | 109° |
| 2026-04-16 18:33 | 41.04764 | -78.40940 | 1520 ft | 8 kts | 109° |
| 2026-04-16 18:33 | 41.04744 | -78.40864 | 1520 ft | 9 kts | 109° |
| 2026-04-16 18:33 | 41.04724 | -78.40787 | 1520 ft | 9 kts | 109° |
| 2026-04-16 18:34 | 41.04703 | -78.40706 | 1520 ft | 10 kts | 109° |
| 2026-04-16 18:34 | 41.04674 | -78.40616 | 1520 ft | 14 kts | 122° |
| 2026-04-16 18:34 | 41.04674 | -78.40559 | 1520 ft | 2 kts | 266° |
| 2026-04-16 18:34 | 41.04675 | -78.40594 | 1520 ft | 4 kts | 285° |
| 2026-04-16 18:35 | 41.04679 | -78.40612 | 1520 ft | 0 kts | 289° |
| 2026-04-16 18:35 | 41.04737 | -78.40834 | 1520 ft | 50 kts | 289° |
| 2026-04-16 18:35 | 41.04884 | -78.41402 | 1579 ft | 73 kts | 289° |
| 2026-04-16 18:36 | 41.05053 | -78.42056 | 1741 ft | 77 kts | 289° |
| 2026-04-16 18:36 | 41.05231 | -78.42737 | 1906 ft | 80 kts | 288° |
| 2026-04-16 18:36 | 41.05428 | -78.43434 | 2066 ft | 82 kts | 288° |
| 2026-04-16 18:36 | 41.05818 | -78.43983 | 2223 ft | 94 kts | 341° |
| 2026-04-16 18:37 | 41.06428 | -78.43642 | 2374 ft | 104 kts | 46° |
| 2026-04-16 18:37 | 41.06871 | -78.42890 | 2536 ft | 104 kts | 53° |
| 2026-04-16 18:37 | 41.07298 | -78.42110 | 2685 ft | 105 kts | 54° |
| 2026-04-16 18:37 | 41.07719 | -78.41312 | 2833 ft | 107 kts | 55° |
| 2026-04-16 18:38 | 41.08142 | -78.40502 | 2981 ft | 108 kts | 54° |
| 2026-04-16 18:38 | 41.08576 | -78.39691 | 3129 ft | 109 kts | 53° |
| 2026-04-16 18:38 | 41.09029 | -78.38886 | 3276 ft | 110 kts | 51° |
| 2026-04-16 18:38 | 41.09508 | -78.38095 | 3424 ft | 110 kts | 49° |
| 2026-04-16 18:39 | 41.10008 | -78.37342 | 3583 ft | 108 kts | 45° |
| 2026-04-16 18:39 | 41.10534 | -78.36626 | 3727 ft | 109 kts | 41° |
| 2026-04-16 18:39 | 41.11086 | -78.35946 | 3872 ft | 109 kts | 37° |
| 2026-04-16 18:39 | 41.11664 | -78.35300 | 4017 ft | 109 kts | 33° |
| 2026-04-16 18:40 | 41.12267 | -78.34689 | 4162 ft | 110 kts | 30° |
| 2026-04-16 18:40 | 41.12894 | -78.34114 | 4308 ft | 110 kts | 26° |
| 2026-04-16 18:40 | 41.13537 | -78.33568 | 4454 ft | 110 kts | 24° |
| 2026-04-16 18:40 | 41.14193 | -78.33047 | 4600 ft | 110 kts | 21° |
| 2026-04-16 18:41 | 41.14858 | -78.32543 | 4747 ft | 110 kts | 19° |
| 2026-04-16 18:41 | 41.15529 | -78.32049 | 4892 ft | 111 kts | 18° |
| 2026-04-16 18:41 | 41.16202 | -78.31557 | 5038 ft | 111 kts | 17° |
| 2026-04-16 18:41 | 41.16876 | -78.31060 | 5183 ft | 111 kts | 17° |
| 2026-04-16 18:42 | 41.17547 | -78.30553 | 5325 ft | 112 kts | 17° |
| 2026-04-16 18:42 | 41.18232 | -78.30022 | 5434 ft | 117 kts | 18° |
| 2026-04-16 18:42 | 41.18961 | -78.29452 | 5472 ft | 127 kts | 19° |
| 2026-04-16 18:42 | 41.19752 | -78.28826 | 5465 ft | 137 kts | 21° |
| 2026-04-16 18:43 | 41.20580 | -78.28145 | 5451 ft | 143 kts | 23° |
| 2026-04-16 18:43 | 41.21414 | -78.27413 | 5441 ft | 145 kts | 26° |
| 2026-04-16 18:43 | 41.22228 | -78.26642 | 5434 ft | 143 kts | 28° |
| 2026-04-16 18:43 | 41.23012 | -78.25842 | 5430 ft | 142 kts | 30° |
| 2026-04-16 18:44 | 41.23771 | -78.25022 | 5431 ft | 140 kts | 32° |
| 2026-04-16 18:44 | 41.24509 | -78.24190 | 5432 ft | 140 kts | 33° |
| 2026-04-16 18:44 | 41.25245 | -78.23341 | 5434 ft | 140 kts | 34° |
| 2026-04-16 18:44 | 41.25975 | -78.22491 | 5435 ft | 140 kts | 34° |
| 2026-04-16 18:45 | 41.26708 | -78.21645 | 5435 ft | 140 kts | 33° |
| 2026-04-16 18:45 | 41.27447 | -78.20808 | 5435 ft | 140 kts | 32° |
| 2026-04-16 18:45 | 41.28193 | -78.19987 | 5435 ft | 139 kts | 31° |
| 2026-04-16 18:45 | 41.28948 | -78.19183 | 5434 ft | 139 kts | 30° |
| 2026-04-16 18:46 | 41.29712 | -78.18399 | 5434 ft | 139 kts | 28° |
| 2026-04-16 18:46 | 41.30484 | -78.17633 | 5434 ft | 139 kts | 27° |
| 2026-04-16 18:46 | 41.31260 | -78.16882 | 5434 ft | 138 kts | 27° |
| 2026-04-16 18:46 | 41.32042 | -78.16143 | 5435 ft | 138 kts | 26° |
| 2026-04-16 18:47 | 41.32825 | -78.15405 | 5434 ft | 138 kts | 27° |
| 2026-04-16 18:47 | 41.33605 | -78.14661 | 5434 ft | 138 kts | 27° |
| 2026-04-16 18:47 | 41.34386 | -78.13916 | 5434 ft | 138 kts | 27° |
| 2026-04-16 18:47 | 41.35166 | -78.13170 | 5434 ft | 138 kts | 27° |
| 2026-04-16 18:48 | 41.35947 | -78.12425 | 5435 ft | 138 kts | 27° |
| 2026-04-16 18:48 | 41.36727 | -78.11679 | 5435 ft | 138 kts | 27° |
| 2026-04-16 18:48 | 41.37507 | -78.10933 | 5435 ft | 138 kts | 27° |
| 2026-04-16 18:48 | 41.38288 | -78.10187 | 5434 ft | 138 kts | 27° |
| 2026-04-16 18:49 | 41.39068 | -78.09441 | 5433 ft | 139 kts | 27° |
| 2026-04-16 18:49 | 41.39870 | -78.08683 | 5469 ft | 146 kts | 27° |
| 2026-04-16 18:49 | 41.40718 | -78.07892 | 5417 ft | 148 kts | 27° |
| 2026-04-16 18:49 | 41.41541 | -78.07106 | 5422 ft | 144 kts | 28° |
| 2026-04-16 18:50 | 41.42337 | -78.06331 | 5426 ft | 141 kts | 28° |
| 2026-04-16 18:50 | 41.43123 | -78.05562 | 5429 ft | 140 kts | 28° |
| 2026-04-16 18:50 | 41.43903 | -78.04799 | 5430 ft | 139 kts | 27° |
| 2026-04-16 18:50 | 41.44689 | -78.04064 | 5430 ft | 138 kts | 24° |
| 2026-04-16 18:51 | 41.45496 | -78.03385 | 5427 ft | 137 kts | 21° |
| 2026-04-16 18:51 | 41.46295 | -78.02694 | 5428 ft | 138 kts | 25° |
| 2026-04-16 18:51 | 41.47077 | -78.01951 | 5427 ft | 139 kts | 27° |
| 2026-04-16 18:51 | 41.47851 | -78.01188 | 5428 ft | 139 kts | 28° |
| 2026-04-16 18:52 | 41.48628 | -78.00434 | 5427 ft | 138 kts | 27° |
| 2026-04-16 18:52 | 41.49424 | -77.99729 | 5425 ft | 137 kts | 23° |
| 2026-04-16 18:52 | 41.50241 | -77.99096 | 5424 ft | 135 kts | 18° |
| 2026-04-16 18:52 | 41.51082 | -77.98559 | 5423 ft | 133 kts | 11° |
| 2026-04-16 18:53 | 41.51940 | -77.98139 | 5422 ft | 130 kts | 4° |
| 2026-04-16 18:53 | 41.52803 | -77.97849 | 5422 ft | 127 kts | 356° |
| 2026-04-16 18:53 | 41.53660 | -77.97693 | 5421 ft | 123 kts | 348° |
| 2026-04-16 18:53 | 41.54499 | -77.97665 | 5421 ft | 119 kts | 341° |
| 2026-04-16 18:54 | 41.55309 | -77.97752 | 5421 ft | 115 kts | 334° |
| 2026-04-16 18:54 | 41.56083 | -77.97935 | 5420 ft | 112 kts | 329° |
| 2026-04-16 18:54 | 41.56837 | -77.98168 | 5420 ft | 111 kts | 328° |
| 2026-04-16 18:54 | 41.57587 | -77.98403 | 5423 ft | 111 kts | 328° |
| 2026-04-16 18:55 | 41.58325 | -77.98635 | 5419 ft | 111 kts | 328° |
| 2026-04-16 18:55 | 41.59083 | -77.98873 | 5419 ft | 111 kts | 328° |
| 2026-04-16 18:55 | 41.59836 | -77.99109 | 5419 ft | 111 kts | 328° |
| 2026-04-16 18:55 | 41.60587 | -77.99345 | 5419 ft | 111 kts | 328° |
| 2026-04-16 18:56 | 41.61336 | -77.99579 | 5419 ft | 111 kts | 328° |
| 2026-04-16 18:56 | 41.62081 | -77.99812 | 5419 ft | 111 kts | 328° |
| 2026-04-16 18:56 | 41.62833 | -78.00047 | 5419 ft | 111 kts | 328° |
| 2026-04-16 18:56 | 41.63576 | -78.00279 | 5419 ft | 111 kts | 328° |
| 2026-04-16 18:57 | 41.64329 | -78.00514 | 5418 ft | 111 kts | 328° |
| 2026-04-16 18:57 | 41.65076 | -78.00746 | 5418 ft | 110 kts | 328° |
| 2026-04-16 18:57 | 41.65825 | -78.00975 | 5418 ft | 111 kts | 329° |
| 2026-04-16 18:58 | 41.67407 | -78.01238 | 5411 ft | 119 kts | 341° |
| 2026-04-16 18:58 | 41.68241 | -78.01236 | 5410 ft | 122 kts | 346° |
| 2026-04-16 18:58 | 41.69090 | -78.01148 | 5409 ft | 124 kts | 351° |
| 2026-04-16 18:58 | 41.69949 | -78.00988 | 5408 ft | 126 kts | 354° |
| 2026-04-16 18:59 | 41.70811 | -78.00776 | 5408 ft | 127 kts | 357° |
| 2026-04-16 18:59 | 41.71675 | -78.00532 | 5407 ft | 127 kts | 358° |
| 2026-04-16 18:59 | 41.72538 | -78.00280 | 5407 ft | 127 kts | 358° |
| 2026-04-16 18:59 | 41.73402 | -78.00039 | 5407 ft | 127 kts | 357° |
| 2026-04-16 19:00 | 41.74263 | -77.99828 | 5406 ft | 126 kts | 355° |
| 2026-04-16 19:00 | 41.75120 | -77.99659 | 5407 ft | 124 kts | 352° |
| 2026-04-16 19:00 | 41.75972 | -77.99541 | 5406 ft | 123 kts | 349° |
| 2026-04-16 19:00 | 41.76816 | -77.99477 | 5406 ft | 121 kts | 346° |
| 2026-04-16 19:01 | 41.77649 | -77.99463 | 5406 ft | 119 kts | 343° |
| 2026-04-16 19:01 | 41.78472 | -77.99495 | 5406 ft | 118 kts | 340° |
| 2026-04-16 19:01 | 41.79286 | -77.99562 | 5406 ft | 117 kts | 338° |
| 2026-04-16 19:01 | 41.80092 | -77.99652 | 5406 ft | 116 kts | 337° |
| 2026-04-16 19:02 | 41.80894 | -77.99755 | 5407 ft | 116 kts | 337° |
| 2026-04-16 19:02 | 41.81696 | -77.99859 | 5407 ft | 116 kts | 337° |
| 2026-04-16 19:02 | 41.82501 | -77.99953 | 5407 ft | 117 kts | 338° |
| 2026-04-16 19:02 | 41.83313 | -78.00030 | 5407 ft | 117 kts | 339° |
| 2026-04-16 19:03 | 41.84128 | -78.00084 | 5408 ft | 118 kts | 341° |
| 2026-04-16 19:03 | 41.84949 | -78.00113 | 5406 ft | 118 kts | 342° |
| 2026-04-16 19:03 | 41.85772 | -78.00117 | 5406 ft | 119 kts | 343° |
| 2026-04-16 19:03 | 41.86600 | -78.00100 | 5406 ft | 119 kts | 345° |
| 2026-04-16 19:04 | 41.87428 | -78.00069 | 5406 ft | 120 kts | 345° |
| 2026-04-16 19:04 | 41.88258 | -78.00030 | 5406 ft | 120 kts | 346° |
| 2026-04-16 19:04 | 41.89088 | -77.99990 | 5407 ft | 119 kts | 345° |
| 2026-04-16 19:04 | 41.89916 | -77.99955 | 5407 ft | 119 kts | 345° |
| 2026-04-16 19:05 | 41.90740 | -77.99929 | 5406 ft | 119 kts | 344° |
| 2026-04-16 19:05 | 41.91563 | -77.99914 | 5407 ft | 118 kts | 343° |
| 2026-04-16 19:05 | 41.92383 | -77.99909 | 5407 ft | 118 kts | 343° |
| 2026-04-16 19:05 | 41.93199 | -77.99913 | 5407 ft | 117 kts | 342° |
| 2026-04-16 19:06 | 41.94005 | -77.99923 | 5407 ft | 117 kts | 342° |
| 2026-04-16 19:06 | 41.94833 | -77.99916 | 5407 ft | 118 kts | 344° |
| 2026-04-16 19:06 | 41.95653 | -77.99902 | 5407 ft | 118 kts | 344° |
| 2026-04-16 19:06 | 41.96472 | -77.99889 | 5407 ft | 118 kts | 344° |
| 2026-04-16 19:07 | 41.97291 | -77.99875 | 5407 ft | 118 kts | 344° |
| 2026-04-16 19:07 | 41.98111 | -77.99862 | 5406 ft | 118 kts | 344° |
| 2026-04-16 19:07 | 41.98930 | -77.99848 | 5406 ft | 118 kts | 344° |
| 2026-04-16 19:07 | 41.99752 | -77.99835 | 5407 ft | 118 kts | 343° |
| 2026-04-16 19:08 | 42.00566 | -77.99820 | 5394 ft | 119 kts | 344° |
| 2026-04-16 19:08 | 42.01372 | -77.99798 | 5455 ft | 113 kts | 344° |
| 2026-04-16 19:08 | 42.01932 | -77.99770 | 5487 ft | 114 kts | 347° |
| 2026-04-16 19:08 | 42.02711 | -77.99308 | 5508 ft | 129 kts | 24° |
| 2026-04-16 19:09 | 42.03499 | -77.98927 | 5508 ft | 114 kts | 345° |
| 2026-04-16 19:09 | 42.04240 | -77.99056 | 5509 ft | 104 kts | 326° |
| 2026-04-16 19:09 | 42.04943 | -77.99304 | 5503 ft | 106 kts | 327° |
| 2026-04-16 19:09 | 42.05683 | -77.99487 | 5499 ft | 110 kts | 334° |
| 2026-04-16 19:10 | 42.06452 | -77.99598 | 5498 ft | 112 kts | 336° |
| 2026-04-16 19:10 | 42.07223 | -77.99706 | 5498 ft | 111 kts | 335° |
| 2026-04-16 19:10 | 42.07992 | -77.99817 | 5498 ft | 112 kts | 335° |
| 2026-04-16 19:10 | 42.08762 | -77.99927 | 5498 ft | 111 kts | 335° |
| 2026-04-16 19:11 | 42.09538 | -78.00017 | 5498 ft | 113 kts | 338° |
| 2026-04-16 19:11 | 42.10324 | -78.00067 | 5498 ft | 115 kts | 342° |
| 2026-04-16 19:11 | 42.11083 | -78.00192 | 5500 ft | 109 kts | 333° |
| 2026-04-16 19:11 | 42.11850 | -78.00296 | 5498 ft | 111 kts | 336° |
| 2026-04-16 19:12 | 42.12615 | -78.00412 | 5497 ft | 111 kts | 334° |
| 2026-04-16 19:12 | 42.13377 | -78.00535 | 5497 ft | 111 kts | 335° |
| 2026-04-16 19:12 | 42.14141 | -78.00654 | 5497 ft | 111 kts | 335° |
| 2026-04-16 19:12 | 42.14906 | -78.00772 | 5497 ft | 111 kts | 335° |
| 2026-04-16 19:13 | 42.15672 | -78.00888 | 5497 ft | 111 kts | 335° |
| 2026-04-16 19:13 | 42.16438 | -78.01003 | 5497 ft | 111 kts | 335° |
| 2026-04-16 19:13 | 42.17204 | -78.01115 | 5499 ft | 111 kts | 335° |
| 2026-04-16 19:13 | 42.17970 | -78.01226 | 5500 ft | 111 kts | 335° |
| 2026-04-16 19:14 | 42.18738 | -78.01337 | 5500 ft | 111 kts | 335° |
| 2026-04-16 19:14 | 42.19511 | -78.01450 | 5496 ft | 113 kts | 335° |
| 2026-04-16 19:14 | 42.20290 | -78.01563 | 5496 ft | 113 kts | 335° |
| 2026-04-16 19:14 | 42.21072 | -78.01675 | 5496 ft | 113 kts | 335° |
| 2026-04-16 19:15 | 42.21857 | -78.01788 | 5495 ft | 114 kts | 336° |
| 2026-04-16 19:15 | 42.22643 | -78.01900 | 5495 ft | 114 kts | 336° |
| 2026-04-16 19:15 | 42.23432 | -78.02011 | 5495 ft | 114 kts | 336° |
| 2026-04-16 19:15 | 42.24220 | -78.02122 | 5494 ft | 114 kts | 336° |
| 2026-04-16 19:16 | 42.25011 | -78.02234 | 5494 ft | 114 kts | 336° |
| 2026-04-16 19:16 | 42.25801 | -78.02345 | 5494 ft | 114 kts | 336° |
| 2026-04-16 19:16 | 42.26592 | -78.02456 | 5494 ft | 115 kts | 336° |
| 2026-04-16 19:16 | 42.27384 | -78.02568 | 5494 ft | 115 kts | 336° |
| 2026-04-16 19:17 | 42.28173 | -78.02679 | 5494 ft | 114 kts | 336° |
| 2026-04-16 19:17 | 42.28962 | -78.02791 | 5491 ft | 114 kts | 336° |
| 2026-04-16 19:17 | 42.29750 | -78.02903 | 5491 ft | 114 kts | 336° |
| 2026-04-16 19:17 | 42.30537 | -78.03014 | 5491 ft | 114 kts | 336° |
| 2026-04-16 19:18 | 42.31324 | -78.03126 | 5491 ft | 114 kts | 336° |
| 2026-04-16 19:18 | 42.32110 | -78.03237 | 5491 ft | 114 kts | 336° |
| 2026-04-16 19:18 | 42.32895 | -78.03349 | 5491 ft | 114 kts | 336° |
| 2026-04-16 19:18 | 42.33681 | -78.03461 | 5491 ft | 114 kts | 336° |
| 2026-04-16 19:19 | 42.34466 | -78.03573 | 5491 ft | 114 kts | 336° |
| 2026-04-16 19:19 | 42.35251 | -78.03685 | 5491 ft | 114 kts | 336° |
| 2026-04-16 19:19 | 42.36035 | -78.03796 | 5494 ft | 113 kts | 336° |
| 2026-04-16 19:19 | 42.36818 | -78.03907 | 5493 ft | 114 kts | 336° |
| 2026-04-16 19:20 | 42.37607 | -78.04021 | 5491 ft | 115 kts | 336° |
| 2026-04-16 19:20 | 42.38400 | -78.04137 | 5489 ft | 115 kts | 336° |
| 2026-04-16 19:20 | 42.39195 | -78.04254 | 5488 ft | 115 kts | 336° |
| 2026-04-16 19:20 | 42.39992 | -78.04371 | 5488 ft | 115 kts | 336° |
| 2026-04-16 19:21 | 42.40789 | -78.04487 | 5487 ft | 116 kts | 336° |
| 2026-04-16 19:21 | 42.41588 | -78.04603 | 5487 ft | 116 kts | 336° |
| 2026-04-16 19:21 | 42.42387 | -78.04717 | 5487 ft | 116 kts | 336° |
| 2026-04-16 19:21 | 42.43188 | -78.04829 | 5491 ft | 116 kts | 336° |
| 2026-04-16 19:22 | 42.43989 | -78.04939 | 5493 ft | 116 kts | 336° |
| 2026-04-16 19:22 | 42.44791 | -78.05050 | 5493 ft | 116 kts | 336° |
| 2026-04-16 19:22 | 42.45594 | -78.05163 | 5491 ft | 116 kts | 336° |
| 2026-04-16 19:22 | 42.46401 | -78.05279 | 5486 ft | 117 kts | 336° |
| 2026-04-16 19:23 | 42.47207 | -78.05395 | 5484 ft | 117 kts | 336° |
| 2026-04-16 19:23 | 42.48012 | -78.05511 | 5484 ft | 117 kts | 336° |
| 2026-04-16 19:23 | 42.48816 | -78.05626 | 5484 ft | 116 kts | 336° |
| 2026-04-16 19:23 | 42.49620 | -78.05741 | 5483 ft | 116 kts | 336° |
| 2026-04-16 19:24 | 42.50424 | -78.05855 | 5484 ft | 116 kts | 336° |
| 2026-04-16 19:24 | 42.51229 | -78.05969 | 5484 ft | 117 kts | 336° |
| 2026-04-16 19:24 | 42.52034 | -78.06083 | 5482 ft | 117 kts | 336° |
| 2026-04-16 19:24 | 42.52837 | -78.06195 | 5494 ft | 116 kts | 336° |
| 2026-04-16 19:25 | 42.53637 | -78.06305 | 5497 ft | 116 kts | 336° |
| 2026-04-16 19:25 | 42.54441 | -78.06410 | 5495 ft | 117 kts | 335° |
| 2026-04-16 19:25 | 42.55254 | -78.06507 | 5488 ft | 118 kts | 335° |
| 2026-04-16 19:25 | 42.56066 | -78.06609 | 5486 ft | 117 kts | 335° |
| 2026-04-16 19:26 | 42.56876 | -78.06716 | 5486 ft | 117 kts | 335° |
| 2026-04-16 19:26 | 42.57684 | -78.06827 | 5486 ft | 117 kts | 335° |
| 2026-04-16 19:26 | 42.58490 | -78.06942 | 5486 ft | 117 kts | 334° |
| 2026-04-16 19:26 | 42.59295 | -78.07061 | 5487 ft | 117 kts | 334° |
| 2026-04-16 19:27 | 42.60107 | -78.07190 | 5431 ft | 121 kts | 334° |
| 2026-04-16 19:27 | 42.60963 | -78.07351 | 5307 ft | 127 kts | 334° |
| 2026-04-16 19:27 | 42.61848 | -78.07536 | 5180 ft | 130 kts | 335° |
| 2026-04-16 19:27 | 42.62749 | -78.07727 | 5059 ft | 132 kts | 336° |
| 2026-04-16 19:28 | 42.63658 | -78.07922 | 4935 ft | 133 kts | 336° |
| 2026-04-16 19:28 | 42.64573 | -78.08111 | 4812 ft | 134 kts | 337° |
| 2026-04-16 19:28 | 42.65493 | -78.08290 | 4688 ft | 134 kts | 338° |
| 2026-04-16 19:28 | 42.66419 | -78.08457 | 4564 ft | 135 kts | 339° |
| 2026-04-16 19:29 | 42.67336 | -78.08604 | 4461 ft | 129 kts | 340° |
| 2026-04-16 19:29 | 42.68217 | -78.08719 | 4325 ft | 127 kts | 340° |
| 2026-04-16 19:29 | 42.69103 | -78.08826 | 4195 ft | 128 kts | 340° |
| 2026-04-16 19:29 | 42.69984 | -78.08997 | 4068 ft | 129 kts | 338° |
| 2026-04-16 19:30 | 42.70873 | -78.09206 | 3945 ft | 131 kts | 338° |
| 2026-04-16 19:30 | 42.71769 | -78.09419 | 3825 ft | 131 kts | 336° |
| 2026-04-16 19:30 | 42.72673 | -78.09600 | 3702 ft | 131 kts | 338° |
| 2026-04-16 19:30 | 42.73577 | -78.09782 | 3576 ft | 132 kts | 338° |
| 2026-04-16 19:31 | 42.74481 | -78.09976 | 3452 ft | 132 kts | 338° |
| 2026-04-16 19:31 | 42.75386 | -78.10181 | 3327 ft | 132 kts | 338° |
| 2026-04-16 19:31 | 42.76279 | -78.10392 | 3298 ft | 125 kts | 338° |
| 2026-04-16 19:31 | 42.77098 | -78.10564 | 3394 ft | 115 kts | 338° |
| 2026-04-16 19:32 | 42.77876 | -78.10708 | 3448 ft | 113 kts | 338° |
| 2026-04-16 19:32 | 42.78658 | -78.10850 | 3472 ft | 113 kts | 338° |
| 2026-04-16 19:32 | 42.79438 | -78.10989 | 3498 ft | 114 kts | 338° |
| 2026-04-16 19:32 | 42.80227 | -78.11132 | 3504 ft | 115 kts | 338° |
| 2026-04-16 19:33 | 42.81024 | -78.11282 | 3503 ft | 116 kts | 338° |
| 2026-04-16 19:33 | 42.81827 | -78.11439 | 3501 ft | 117 kts | 337° |
| 2026-04-16 19:33 | 42.82625 | -78.11622 | 3501 ft | 116 kts | 336° |
| 2026-04-16 19:33 | 42.83421 | -78.11813 | 3500 ft | 116 kts | 336° |
| 2026-04-16 19:34 | 42.84217 | -78.12003 | 3500 ft | 116 kts | 336° |
| 2026-04-16 19:34 | 42.85014 | -78.12193 | 3500 ft | 116 kts | 336° |
| 2026-04-16 19:34 | 42.85809 | -78.12382 | 3500 ft | 116 kts | 336° |
| 2026-04-16 19:34 | 42.86603 | -78.12569 | 3500 ft | 116 kts | 336° |
| 2026-04-16 19:35 | 42.87395 | -78.12754 | 3500 ft | 116 kts | 336° |
| 2026-04-16 19:35 | 42.88187 | -78.12937 | 3499 ft | 115 kts | 336° |
| 2026-04-16 19:35 | 42.88977 | -78.13117 | 3499 ft | 115 kts | 336° |
| 2026-04-16 19:35 | 42.89760 | -78.13279 | 3502 ft | 114 kts | 336° |
| 2026-04-16 19:36 | 42.90540 | -78.13432 | 3497 ft | 113 kts | 335° |
| 2026-04-16 19:36 | 42.91308 | -78.13609 | 3497 ft | 112 kts | 334° |
| 2026-04-16 19:36 | 42.92070 | -78.13788 | 3498 ft | 111 kts | 334° |
| 2026-04-16 19:36 | 42.92826 | -78.13982 | 3498 ft | 110 kts | 331° |
| 2026-04-16 19:37 | 42.93567 | -78.14206 | 3498 ft | 109 kts | 331° |
| 2026-04-16 19:37 | 42.94309 | -78.14433 | 3498 ft | 109 kts | 331° |
| 2026-04-16 19:37 | 42.95050 | -78.14661 | 3498 ft | 109 kts | 331° |
| 2026-04-16 19:37 | 42.95790 | -78.14889 | 3497 ft | 110 kts | 331° |
| 2026-04-16 19:38 | 42.96556 | -78.15136 | 3389 ft | 117 kts | 331° |
| 2026-04-16 19:38 | 42.97347 | -78.15407 | 3266 ft | 117 kts | 331° |
| 2026-04-16 19:38 | 42.98134 | -78.15682 | 3142 ft | 116 kts | 331° |
| 2026-04-16 19:38 | 42.98898 | -78.15965 | 3023 ft | 112 kts | 331° |
| 2026-04-16 19:39 | 42.99645 | -78.16266 | 2893 ft | 112 kts | 331° |
| 2026-04-16 19:39 | 43.00389 | -78.16586 | 2773 ft | 112 kts | 336° |
| 2026-04-16 19:39 | 43.01167 | -78.16363 | 2638 ft | 127 kts | 33° |
| 2026-04-16 19:39 | 43.01525 | -78.15260 | 2526 ft | 131 kts | 85° |
| 2026-04-16 19:40 | 43.01584 | -78.14015 | 2414 ft | 133 kts | 89° |
| 2026-04-16 19:40 | 43.01645 | -78.12752 | 2292 ft | 134 kts | 89° |
| 2026-04-16 19:40 | 43.01705 | -78.11475 | 2171 ft | 135 kts | 89° |
| 2026-04-16 19:40 | 43.01766 | -78.10209 | 2087 ft | 133 kts | 89° |
| 2026-04-16 19:41 | 43.01828 | -78.08956 | 2008 ft | 131 kts | 86° |
| 2026-04-16 19:41 | 43.02286 | -78.08035 | 1967 ft | 115 kts | 1° |
| 2026-04-16 19:41 | 43.02785 | -78.08479 | 1991 ft | 82 kts | 277° |
| 2026-04-16 19:41 | 43.02912 | -78.09247 | 2005 ft | 79 kts | 282° |
| 2026-04-16 19:42 | 43.03061 | -78.09985 | 1984 ft | 78 kts | 275° |
| 2026-04-16 19:42 | 43.03126 | -78.10693 | 1916 ft | 74 kts | 268° |
| 2026-04-16 19:42 | 43.03104 | -78.11345 | 1780 ft | 66 kts | 265° |
| 2026-04-16 19:42 | 43.03129 | -78.11948 | 1599 ft | 61 kts | 271° |
| 2026-04-16 19:43 | 43.03136 | -78.12528 | 1405 ft | 61 kts | 267° |
| 2026-04-16 19:43 | 43.03127 | -78.13107 | 1278 ft | 61 kts | 270° |
| 2026-04-16 19:43 | 43.03142 | -78.13700 | 1174 ft | 64 kts | 270° |
| 2026-04-16 19:43 | 43.03146 | -78.14306 | 1118 ft | 64 kts | 272° |
| 2026-04-16 19:44 | 43.03147 | -78.14909 | 1069 ft | 65 kts | 272° |
| 2026-04-16 19:44 | 43.03159 | -78.15512 | 1007 ft | 61 kts | 268° |
| 2026-04-16 19:44 | 43.03167 | -78.16087 | 925 ft | 60 kts | 271° |
| 2026-04-16 19:44 | 43.03169 | -78.16519 | 917 ft | 30 kts | 272° |
| 2026-04-16 19:45 | 43.03172 | -78.16702 | 917 ft | 11 kts | 263° |
| 2026-04-16 19:45 | 43.03150 | -78.16744 | 917 ft | 3 kts | 180° |
| 2026-04-16 19:45 | 43.03136 | -78.16744 | 917 ft | 0 kts | 180° |
| 2026-04-16 19:46 | 43.03117 | -78.16744 | 917 ft | 4 kts | 181° |
| 2026-04-16 19:46 | 43.03093 | -78.16745 | 917 ft | 3 kts | 181° |
| 2026-04-16 19:46 | 43.03071 | -78.16745 | 917 ft | 3 kts | 181° |
| 2026-04-16 19:47 | 43.03050 | -78.16746 | 917 ft | 3 kts | 182° |
| 2026-04-16 19:47 | 43.03043 | -78.16746 | 917 ft | 0 kts | 181° |